Time;durP1;ratioP1;P1;durP2;ratioP2;P2;SDS_P1;SDS_P2;PMS_P1;PMS_P2;Temp;Humidity;BMP_temperature;BMP_pressure;BME280_temperature;BME280_humidity;BME280_pressure;Samples;Min_cycle;Max_cycle;Signal;HPM_P1;HPM_P2
2021/01/22 00:02:20;;;;;;;;;;;;;;;;;;4935720;29;20025;-68
2021/01/22 00:04:48;;;;;;;;;;;;;;;;;;4929667;29;19927;-68
2021/01/22 00:07:15;;;;;;;;;;;;;;;;;;4931578;29;19978;-68
2021/01/22 00:09:42;;;;;;;;;;;;;;;;;;4926616;29;19945;-67
2021/01/22 00:12:09;;;;;;;;;;;;;;;;;;4933494;29;19957;-67
2021/01/22 00:14:36;;;;;;;;;;;;;;;;;;4928849;29;20441;-67
2021/01/22 00:17:04;;;;;;;;;;;;;;;;;;4935096;29;19941;-66
2021/01/22 00:19:31;;;;;;;;;;;;;;;;;;4930598;29;19926;-67
2021/01/22 00:21:59;;;;;;;;;;;;;;;;;;4929709;29;19927;-67
2021/01/22 00:24:27;;;;;;;;;;;;;;;;;;4922769;29;19963;-67
2021/01/22 00:26:54;;;;;;;;;;;;;;;;;;4928470;29;19941;-66
2021/01/22 00:29:21;;;;;;;;;;;;;;;;;;4926210;29;20383;-67
2021/01/22 00:31:48;;;;;;;;;;;;;;;;;;4925688;29;20047;-68
2021/01/22 00:34:15;;;;;;;;;;;;;;;;;;4938491;29;19926;-67
2021/01/22 00:36:42;;;;;;;;;;;;;;;;;;4934440;29;19931;-68
2021/01/22 00:39:09;;;;;;;;;;;;;;;;;;4928213;29;20347;-67
2021/01/22 00:41:39;;;;;;;;;;;;;;;;;;4939557;29;19927;-67
2021/01/22 00:44:07;;;;;;;;;;;;;;;;;;4929788;29;20506;-67
2021/01/22 00:46:34;;;;;;;;;;;;;;;;;;4929418;29;19956;-68
2021/01/22 00:49:01;;;;;;;;;;;;;;;;;;4927434;28;20055;-67
2021/01/22 00:51:28;;;;;;;;;;;;;;;;;;4930035;29;20009;-68
2021/01/22 00:53:56;;;;;;;;;;;;;;;;;;4928530;29;19958;-68
2021/01/22 00:56:23;;;;;;;;;;;;;;;;;;4921133;29;19937;-67
2021/01/22 00:58:50;;;;;;;;;;;;;;;;;;4924317;28;20021;-68
2021/01/22 01:01:17;;;;;;;;;;;;;;;;;;4927128;29;19930;-68
2021/01/22 01:03:44;;;;;;;;;;;;;;;;;;4919631;29;19930;-68
2021/01/22 01:06:12;;;;;;;;;;;;;;;;;;4938029;29;20409;-68
2021/01/22 01:08:39;;;;;;;;;;;;;;;;;;4930757;29;19942;-68
2021/01/22 01:11:06;;;;;;;;;;;;;;;;;;4926429;29;20566;-68
2021/01/22 01:13:33;;;;;;;;;;;;;;;;;;4927532;29;19927;-68
2021/01/22 01:16:00;;;;;;;;;;;;;;;;;;4922683;29;20037;-69
2021/01/22 01:18:28;;;;;;;;;;;;;;;;;;4931259;28;20263;-68
2021/01/22 01:20:55;;;;;;;;;;;;;;;;;;4928952;29;19938;-68
2021/01/22 01:23:22;;;;;;;;;;;;;;;;;;4922704;29;20313;-68
2021/01/22 01:25:49;;;;;;;;;;;;;;;;;;4941388;29;20045;-68
2021/01/22 01:28:16;;;;;;;;;;;;;;;;;;4927682;29;19976;-68
2021/01/22 01:30:43;;;;;;;;;;;;;;;;;;4931061;29;20382;-68
2021/01/22 01:33:11;;;;;;;;;;;;;;;;;;4930261;29;20029;-68
2021/01/22 01:35:38;;;;;;;;;;;;;;;;;;4937377;29;20021;-68
2021/01/22 01:38:05;;;;;;;;;;;;;;;;;;4934223;29;20633;-68
2021/01/22 01:40:32;;;;;;;;;;;;;;;;;;4929109;29;19942;-68
2021/01/22 01:43:00;;;;;;;;;;;;;;;;;;4928954;29;20286;-68
2021/01/22 01:45:28;;;;;;;;;;;;;;;;;;4928325;29;19937;-69
2021/01/22 01:47:55;;;;;;;;;;;;;;;;;;4927262;29;20029;-68
2021/01/22 01:50:23;;;;;;;;;;;;;;;;;;4922709;29;20001;-68
2021/01/22 01:52:50;;;;;;;;;;;;;;;;;;4928434;29;19930;-68
2021/01/22 01:55:18;;;;;;;;;;;;;;;;;;4922147;29;19931;-68
2021/01/22 01:57:45;;;;;;;;;;;;;;;;;;4925174;29;19931;-68
2021/01/22 02:00:12;;;;;;;;;;;;;;;;;;4933808;29;20531;-68
2021/01/22 02:02:41;;;;;;;;;;;;;;;;;;4954282;23;19926;-64
2021/01/22 02:05:09;;;;;;;;;;;;;;;;;;4973543;28;20334;-64
2021/01/22 02:07:36;;;;;;;;;;;;;;;;;;4973798;28;19926;-64
2021/01/22 02:10:03;;;;;;;;;;;;;;;;;;4973428;28;20020;-64
2021/01/22 02:12:30;;;;;;;;;;;;;;;;;;4972807;28;19926;-64
2021/01/22 02:14:57;;;;;;;;;;;;;;;;;;4973610;28;20068;-64
2021/01/22 02:17:25;;;;;;;;;;;;;;;;;;4973463;28;20016;-64
2021/01/22 02:19:52;;;;;;;;;;;;;;;;;;4973657;28;19981;-64
2021/01/22 02:22:19;;;;;;;;;;;;;;;;;;4973281;28;19933;-64
2021/01/22 02:24:46;;;;;;;;;;;;;;;;;;4976180;28;20456;-64
2021/01/22 02:27:13;;;;;;;;;;;;;;;;;;4984960;28;20253;-64
2021/01/22 02:29:40;;;;;;;;;;;;;;;;;;4981932;28;19930;-64
2021/01/22 02:32:07;;;;;;;;;;;;;;;;;;4984009;28;19937;-64
2021/01/22 02:34:37;;;;;;;;;;;;;;;;;;4983423;28;20085;-64
2021/01/22 02:37:04;;;;;;;;;;;;;;;;;;4984029;28;19991;-64
2021/01/22 02:39:31;;;;;;;;;;;;;;;;;;4982752;28;19932;-64
2021/01/22 02:41:58;;;;;;;;;;;;;;;;;;4983670;28;19925;-64
2021/01/22 02:44:25;;;;;;;;;;;;;;;;;;4977483;28;19933;-64
2021/01/22 02:46:52;;;;;;;;;;;;;;;;;;4982672;28;19944;-64
2021/01/22 02:49:20;;;;;;;;;;;;;;;;;;4983306;28;20032;-64
2021/01/22 02:51:47;;;;;;;;;;;;;;;;;;4981312;28;19929;-64
2021/01/22 02:54:14;;;;;;;;;;;;;;;;;;4978805;28;19942;-63
2021/01/22 02:56:41;;;;;;;;;;;;;;;;;;4979935;28;20409;-64
2021/01/22 02:59:08;;;;;;;;;;;;;;;;;;4973586;28;20156;-63
2021/01/22 03:01:35;;;;;;;;;;;;;;;;;;4975970;28;19940;-63
2021/01/22 03:04:02;;;;;;;;;;;;;;;;;;4983516;28;19930;-64
2021/01/22 03:06:29;;;;;;;;;;;;;;;;;;4983633;28;19930;-64
2021/01/22 03:08:56;;;;;;;;;;;;;;;;;;4981841;28;19934;-64
2021/01/22 03:11:23;;;;;;;;;;;;;;;;;;4975318;28;20370;-64
2021/01/22 03:13:50;;;;;;;;;;;;;;;;;;4981654;28;20405;-64
2021/01/22 03:16:17;;;;;;;;;;;;;;;;;;4979535;28;19940;-64
2021/01/22 03:18:45;;;;;;;;;;;;;;;;;;4983642;28;19937;-64
2021/01/22 03:21:12;;;;;;;;;;;;;;;;;;4983779;28;19948;-64
2021/01/22 03:23:39;;;;;;;;;;;;;;;;;;4969107;28;19930;-64
2021/01/22 03:26:06;;;;;;;;;;;;;;;;;;4987272;28;19926;-64
2021/01/22 03:28:33;;;;;;;;;;;;;;;;;;4987709;28;19926;-64
2021/01/22 03:31:00;;;;;;;;;;;;;;;;;;4986410;28;20293;-64
2021/01/22 03:33:28;;;;;;;;;;;;;;;;;;4987505;28;19936;-64
2021/01/22 03:35:55;;;;;;;;;;;;;;;;;;4986301;28;19977;-64
2021/01/22 03:38:22;;;;;;;;;;;;;;;;;;4987471;28;19969;-64
2021/01/22 03:40:49;;;;;;;;;;;;;;;;;;4978920;28;20016;-64
2021/01/22 03:43:16;;;;;;;;;;;;;;;;;;4985081;28;20139;-64
2021/01/22 03:45:43;;;;;;;;;;;;;;;;;;4986980;28;19952;-64
2021/01/22 03:48:10;;;;;;;;;;;;;;;;;;4988149;28;19929;-64
2021/01/22 03:50:38;;;;;;;;;;;;;;;;;;4987062;28;19936;-64
2021/01/22 03:53:05;;;;;;;;;;;;;;;;;;4987371;28;19934;-64
2021/01/22 03:55:32;;;;;;;;;;;;;;;;;;4987304;28;20108;-64
2021/01/22 03:57:59;;;;;;;;;;;;;;;;;;4985714;28;19930;-64
2021/01/22 04:00:26;;;;;;;;;;;;;;;;;;4987876;28;19936;-64
2021/01/22 04:02:54;;;;;;;;;;;;;;;;;;4987033;28;19956;-64
2021/01/22 04:05:21;;;;;;;;;;;;;;;;;;4987775;28;19933;-64
2021/01/22 04:07:48;;;;;;;;;;;;;;;;;;4979133;28;20293;-64
2021/01/22 04:10:15;;;;;;;;;;;;;;;;;;4985714;28;19936;-64
2021/01/22 04:12:42;;;;;;;;;;;;;;;;;;4986505;28;20388;-64
2021/01/22 04:15:09;;;;;;;;;;;;;;;;;;4992843;28;19955;-64
2021/01/22 04:17:36;;;;;;;;;;;;;;;;;;4988932;28;19930;-64
2021/01/22 04:20:04;;;;;;;;;;;;;;;;;;4985885;28;20016;-64
2021/01/22 04:22:31;;;;;;;;;;;;;;;;;;4983062;28;20329;-64
2021/01/22 04:24:58;;;;;;;;;;;;;;;;;;4984932;28;19926;-64
2021/01/22 04:27:26;;;;;;;;;;;;;;;;;;4993340;28;20171;-64
2021/01/22 04:29:53;;;;;;;;;;;;;;;;;;4985563;28;19929;-64
2021/01/22 04:32:20;;;;;;;;;;;;;;;;;;4994416;28;19948;-64
2021/01/22 04:34:47;;;;;;;;;;;;;;;;;;4988003;28;19930;-64
2021/01/22 04:37:14;;;;;;;;;;;;;;;;;;4987218;28;20449;-64
2021/01/22 04:39:41;;;;;;;;;;;;;;;;;;4986211;28;20142;-64
2021/01/22 04:42:08;;;;;;;;;;;;;;;;;;4986302;28;20008;-64
2021/01/22 04:44:37;;;;;;;;;;;;;;;;;;4985892;28;19929;-64
2021/01/22 04:47:04;;;;;;;;;;;;;;;;;;4987134;28;19957;-64
2021/01/22 04:49:32;;;;;;;;;;;;;;;;;;4984891;28;19934;-65
2021/01/22 04:51:59;;;;;;;;;;;;;;;;;;4979467;28;19932;-65
2021/01/22 04:54:26;;;;;;;;;;;;;;;;;;4982652;28;19940;-64
2021/01/22 04:56:53;;;;;;;;;;;;;;;;;;4984103;28;20315;-64
2021/01/22 04:59:20;;;;;;;;;;;;;;;;;;4971896;28;20047;-64
2021/01/22 05:01:47;;;;;;;;;;;;;;;;;;4986308;28;19973;-64
2021/01/22 05:04:15;;;;;;;;;;;;;;;;;;4977376;28;20277;-64
2021/01/22 05:06:42;;;;;;;;;;;;;;;;;;4986829;28;20040;-65
2021/01/22 05:09:09;;;;;;;;;;;;;;;;;;4985939;28;19936;-65
2021/01/22 05:11:37;;;;;;;;;;;;;;;;;;4986354;28;20381;-65
2021/01/22 05:14:04;;;;;;;;;;;;;;;;;;4984986;28;19936;-64
2021/01/22 05:16:31;;;;;;;;;;;;;;;;;;4986144;28;19966;-65
2021/01/22 05:18:58;;;;;;;;;;;;;;;;;;4978138;28;19937;-65
2021/01/22 05:21:25;;;;;;;;;;;;;;;;;;4986272;28;19932;-64
2021/01/22 05:23:52;;;;;;;;;;;;;;;;;;4997523;28;20412;-64
2021/01/22 05:26:20;;;;;;;;;;;;;;;;;;4979604;28;19933;-65
2021/01/22 05:28:47;;;;;;;;;;;;;;;;;;4984354;28;19930;-65
2021/01/22 05:31:14;;;;;;;;;;;;;;;;;;4986471;28;19990;-65
2021/01/22 05:33:42;;;;;;;;;;;;;;;;;;4973302;28;20000;-65
2021/01/22 05:36:09;;;;;;;;;;;;;;;;;;4985407;28;19926;-65
2021/01/22 05:38:36;;;;;;;;;;;;;;;;;;4981319;28;19933;-64
2021/01/22 05:41:03;;;;;;;;;;;;;;;;;;4992063;28;19937;-64
2021/01/22 05:43:30;;;;;;;;;;;;;;;;;;4983850;28;20315;-65
2021/01/22 05:45:57;;;;;;;;;;;;;;;;;;4978002;28;20199;-64
2021/01/22 05:48:24;;;;;;;;;;;;;;;;;;4985250;28;20356;-65
2021/01/22 05:50:52;;;;;;;;;;;;;;;;;;4982889;28;19960;-64
2021/01/22 05:53:19;;;;;;;;;;;;;;;;;;4977074;28;19957;-65
2021/01/22 05:55:46;;;;;;;;;;;;;;;;;;4976240;28;19968;-64
2021/01/22 05:58:13;;;;;;;;;;;;;;;;;;4990112;28;20372;-64
2021/01/22 06:00:40;;;;;;;;;;;;;;;;;;4984437;28;19936;-64
2021/01/22 06:03:07;;;;;;;;;;;;;;;;;;4983431;28;19944;-64
2021/01/22 06:05:34;;;;;;;;;;;;;;;;;;4984096;28;19926;-64
2021/01/22 06:08:01;;;;;;;;;;;;;;;;;;4979010;28;20027;-65
2021/01/22 06:10:28;;;;;;;;;;;;;;;;;;4983397;28;20385;-64
2021/01/22 06:12:56;;;;;;;;;;;;;;;;;;4985652;28;19930;-64
2021/01/22 06:15:23;;;;;;;;;;;;;;;;;;4976710;28;19940;-65
2021/01/22 06:17:50;;;;;;;;;;;;;;;;;;4982806;28;19930;-65
2021/01/22 06:20:17;;;;;;;;;;;;;;;;;;4984780;28;20218;-64
2021/01/22 06:22:44;;;;;;;;;;;;;;;;;;4984195;28;19934;-65
2021/01/22 06:25:12;;;;;;;;;;;;;;;;;;4984696;28;19930;-65
2021/01/22 06:27:39;;;;;;;;;;;;;;;;;;4984244;28;20123;-64
2021/01/22 06:30:06;;;;;;;;;;;;;;;;;;4971973;28;20235;-64
2021/01/22 06:32:33;;;;;;;;;;;;;;;;;;4984473;28;20432;-64
2021/01/22 06:35:01;;;;;;;;;;;;;;;;;;4984567;28;19940;-64
2021/01/22 06:37:28;;;;;;;;;;;;;;;;;;4983980;28;19980;-64
2021/01/22 06:39:55;;;;;;;;;;;;;;;;;;4973149;28;20365;-64
2021/01/22 06:42:22;;;;;;;;;;;;;;;;;;4978470;28;19995;-65
2021/01/22 06:44:49;;;;;;;;;;;;;;;;;;4975422;28;20381;-64
2021/01/22 06:47:16;;;;;;;;;;;;;;;;;;4981414;28;20304;-64
2021/01/22 06:49:44;;;;;;;;;;;;;;;;;;4981302;28;20329;-65
2021/01/22 06:52:11;;;;;;;;;;;;;;;;;;4976514;28;20251;-65
2021/01/22 06:54:38;;;;;;;;;;;;;;;;;;4979385;28;20029;-64
2021/01/22 06:57:06;;;;;;;;;;;;;;;;;;4973595;28;20013;-65
2021/01/22 06:59:37;;;;;;;;;;;;;;;;;;4976352;28;20032;-64
2021/01/22 07:02:05;;;;;;;;;;;;;;;;;;4979942;28;19929;-65
2021/01/22 07:04:32;;;;;;;;;;;;;;;;;;4978830;28;20287;-65
2021/01/22 07:07:01;;;;;;;;;;;;;;;;;;4980173;28;19964;-65
2021/01/22 07:09:29;;;;;;;;;;;;;;;;;;4980849;28;19936;-65
2021/01/22 07:11:56;;;;;;;;;;;;;;;;;;4979442;28;20400;-65
2021/01/22 07:14:23;;;;;;;;;;;;;;;;;;4980760;28;19969;-65
2021/01/22 07:16:50;;;;;;;;;;;;;;;;;;4979404;28;20394;-65
2021/01/22 07:19:17;;;;;;;;;;;;;;;;;;4979758;28;20054;-65
2021/01/22 07:21:46;;;;;;;;;;;;;;;;;;4978802;28;20035;-65
2021/01/22 07:24:15;;;;;;;;;;;;;;;;;;4975636;28;20042;-65
2021/01/22 07:26:42;;;;;;;;;;;;;;;;;;4972150;28;19945;-65
2021/01/22 07:29:21;;;;;;;;;;;;;;;;;;4976670;28;20038;-65
2021/01/22 07:31:49;;;;;;;;;;;;;;;;;;4978588;28;19936;-65
2021/01/22 07:34:17;;;;;;;;;;;;;;;;;;4981454;28;20036;-66
2021/01/22 07:36:44;;;;;;;;;;;;;;;;;;4974253;28;20028;-66
2021/01/22 07:39:11;;;;;;;;;;;;;;;;;;4974762;28;20080;-66
2021/01/22 07:41:39;;;;;;;;;;;;;;;;;;4980438;28;20021;-66
2021/01/22 07:44:06;;;;;;;;;;;;;;;;;;4984043;28;20032;-66
2021/01/22 07:46:34;;;;;;;;;;;;;;;;;;4972816;28;19972;-66
2021/01/22 07:49:01;;;;;;;;;;;;;;;;;;4979429;28;19934;-66
2021/01/22 07:51:29;;;;;;;;;;;;;;;;;;4982887;28;19988;-66
2021/01/22 07:53:56;;;;;;;;;;;;;;;;;;4982501;28;19981;-66
2021/01/22 07:56:24;;;;;;;;;;;;;;;;;;4978338;28;20289;-66
2021/01/22 07:58:51;;;;;;;;;;;;;;;;;;4982051;28;20675;-66
2021/01/22 08:01:19;;;;;;;;;;;;;;;;;;4980515;28;19940;-66
2021/01/22 08:03:46;;;;;;;;;;;;;;;;;;4979097;28;19934;-66
2021/01/22 08:06:14;;;;;;;;;;;;;;;;;;4983242;28;19933;-66
2021/01/22 08:08:41;;;;;;;;;;;;;;;;;;4980388;28;20641;-66
2021/01/22 08:11:08;;;;;;;;;;;;;;;;;;4982859;28;19930;-66
2021/01/22 08:13:39;;;;;;;;;;;;;;;;;;4982232;28;20297;-66
2021/01/22 08:16:06;;;;;;;;;;;;;;;;;;4986321;28;20211;-66
2021/01/22 08:18:35;;;;;;;;;;;;;;;;;;4986060;28;20024;-66
2021/01/22 08:21:02;;;;;;;;;;;;;;;;;;4982164;28;19930;-66
2021/01/22 08:23:30;;;;;;;;;;;;;;;;;;4990451;28;19953;-67
2021/01/22 08:25:57;;;;;;;;;;;;;;;;;;4980922;28;19930;-67
2021/01/22 08:28:25;;;;;;;;;;;;;;;;;;4986193;28;19948;-67
2021/01/22 08:30:52;;;;;;;;;;;;;;;;;;4983961;28;20020;-66
2021/01/22 08:33:19;;;;;;;;;;;;;;;;;;4980539;28;19926;-65
2021/01/22 08:35:47;;;;;;;;;;;;;;;;;;4985729;28;19934;-65
2021/01/22 08:38:14;;;;;;;;;;;;;;;;;;4980904;28;20021;-65
2021/01/22 08:40:44;;;;;;;;;;;;;;;;;;4984422;28;19941;-66
2021/01/22 08:43:12;;;;;;;;;;;;;;;;;;4984889;28;19940;-65
2021/01/22 08:45:40;;;;;;;;;;;;;;;;;;4986014;28;20135;-65
2021/01/22 08:48:07;;;;;;;;;;;;;;;;;;4981707;28;19934;-65
2021/01/22 08:50:35;;;;;;;;;;;;;;;;;;4986373;28;20132;-65
2021/01/22 08:53:02;;;;;;;;;;;;;;;;;;4984070;28;20000;-65
2021/01/22 08:55:29;;;;;;;;;;;;;;;;;;4985722;28;20358;-65
2021/01/22 08:57:57;;;;;;;;;;;;;;;;;;4981995;28;19934;-66
2021/01/22 09:00:24;;;;;;;;;;;;;;;;;;4982378;28;20079;-65
2021/01/22 09:02:51;;;;;;;;;;;;;;;;;;4980388;28;20347;-66
2021/01/22 09:05:19;;;;;;;;;;;;;;;;;;4985105;28;20317;-65
2021/01/22 09:07:46;;;;;;;;;;;;;;;;;;4977537;28;19934;-65
2021/01/22 09:10:14;;;;;;;;;;;;;;;;;;4979401;28;20770;-66
2021/01/22 09:12:44;;;;;;;;;;;;;;;;;;4979154;28;19926;-66
2021/01/22 09:15:12;;;;;;;;;;;;;;;;;;4983233;28;19937;-66
2021/01/22 09:17:39;;;;;;;;;;;;;;;;;;4983689;28;20010;-65
2021/01/22 09:20:07;;;;;;;;;;;;;;;;;;4978751;28;20409;-66
2021/01/22 09:22:34;;;;;;;;;;;;;;;;;;4985776;28;19934;-66
2021/01/22 09:25:02;;;;;;;;;;;;;;;;;;4984424;28;19929;-66
2021/01/22 09:27:30;;;;;;;;;;;;;;;;;;4985097;28;19934;-66
2021/01/22 09:29:58;;;;;;;;;;;;;;;;;;4967952;28;19937;-66
2021/01/22 09:32:25;;;;;;;;;;;;;;;;;;4970277;28;19930;-66
2021/01/22 09:34:53;;;;;;;;;;;;;;;;;;4985545;28;20424;-66
2021/01/22 09:37:20;;;;;;;;;;;;;;;;;;4983228;28;20004;-66
2021/01/22 09:39:49;;;;;;;;;;;;;;;;;;4984914;28;20553;-66
2021/01/22 09:42:16;;;;;;;;;;;;;;;;;;4983828;28;20344;-66
2021/01/22 09:44:44;;;;;;;;;;;;;;;;;;4982879;28;20028;-66
2021/01/22 09:47:11;;;;;;;;;;;;;;;;;;4983341;28;20463;-66
2021/01/22 09:49:39;;;;;;;;;;;;;;;;;;4985490;28;19953;-66
2021/01/22 09:52:06;;;;;;;;;;;;;;;;;;4982697;28;20612;-66
2021/01/22 09:54:35;;;;;;;;;;;;;;;;;;4974400;28;20140;-65
2021/01/22 09:57:02;;;;;;;;;;;;;;;;;;4971689;28;20017;-66
2021/01/22 09:59:30;;;;;;;;;;;;;;;;;;4974514;28;19929;-66
2021/01/22 10:01:57;;;;;;;;;;;;;;;;;;4984502;28;20273;-66
2021/01/22 10:04:34;;;;;;;;;;;;;;;;;;1596251;28;10022119;-66
2021/01/22 10:07:01;;;;;;;;;;;;;;;;;;3939541;28;10001245;-66
2021/01/22 10:09:29;;;;;;;;;;;;;;;;;;4980165;28;19945;-66
2021/01/22 10:11:56;;;;;;;;;;;;;;;;;;4976584;28;19952;-66
2021/01/22 10:14:24;;;;;;;;;;;;;;;;;;4985286;28;19957;-66
2021/01/22 10:16:51;;;;;;;;;;;;;;;;;;4979460;28;20012;-66
2021/01/22 10:19:19;;;;;;;;;;;;;;;;;;4977583;28;20024;-66
2021/01/22 10:21:47;;;;;;;;;;;;;;;;;;4983821;28;20300;-66
2021/01/22 10:24:16;;;;;;;;;;;;;;;;;;4979213;28;19929;-66
2021/01/22 10:26:45;;;;;;;;;;;;;;;;;;4981797;28;19984;-66
2021/01/22 10:29:12;;;;;;;;;;;;;;;;;;4989845;28;19930;-66
2021/01/22 10:31:40;;;;;;;;;;;;;;;;;;4991908;28;20440;-66
2021/01/22 10:34:08;;;;;;;;;;;;;;;;;;4975713;28;20361;-66
2021/01/22 10:36:35;;;;;;;;;;;;;;;;;;4981321;28;19938;-66
2021/01/22 10:39:03;;;;;;;;;;;;;;;;;;4981591;28;22178;-66
2021/01/22 10:41:30;;;;;;;;;;;;;;;;;;4983040;28;20418;-65
2021/01/22 10:43:58;;;;;;;;;;;;;;;;;;4983743;28;19936;-66
2021/01/22 10:46:26;;;;;;;;;;;;;;;;;;4984677;28;20423;-66
2021/01/22 10:48:53;;;;;;;;;;;;;;;;;;4998066;28;19936;-65
2021/01/22 10:51:21;;;;;;;;;;;;;;;;;;4980926;28;19933;-66
2021/01/22 10:53:49;;;;;;;;;;;;;;;;;;4981434;28;20056;-65
2021/01/22 10:56:16;;;;;;;;;;;;;;;;;;4983614;28;20429;-66
2021/01/22 10:58:44;;;;;;;;;;;;;;;;;;4981511;28;19937;-65
2021/01/22 11:01:11;;;;;;;;;;;;;;;;;;4985764;28;19930;-66
2021/01/22 11:03:39;;;;;;;;;;;;;;;;;;4980909;28;19926;-66
2021/01/22 11:06:06;;;;;;;;;;;;;;;;;;4978835;28;20012;-68
2021/01/22 11:08:34;;;;;;;;;;;;;;;;;;4984067;28;19925;-67
2021/01/22 11:11:02;;;;;;;;;;;;;;;;;;4981809;28;19937;-67
2021/01/22 11:13:30;;;;;;;;;;;;;;;;;;4985416;28;20043;-67
2021/01/22 11:15:58;;;;;;;;;;;;;;;;;;4979948;28;20476;-67
2021/01/22 11:18:25;;;;;;;;;;;;;;;;;;4981825;28;20306;-67
2021/01/22 11:20:53;;;;;;;;;;;;;;;;;;4981047;28;19957;-67
2021/01/22 11:23:20;;;;;;;;;;;;;;;;;;4983757;28;19944;-67
2021/01/22 11:25:48;;;;;;;;;;;;;;;;;;4985025;28;19977;-67
2021/01/22 11:28:15;;;;;;;;;;;;;;;;;;4983298;28;19930;-69
2021/01/22 11:30:43;;;;;;;;;;;;;;;;;;4984155;28;19929;-69
2021/01/22 11:33:11;;;;;;;;;;;;;;;;;;4985310;28;20305;-69
2021/01/22 11:35:38;;;;;;;;;;;;;;;;;;4984726;28;19925;-69
2021/01/22 11:38:06;;;;;;;;;;;;;;;;;;4980885;28;20198;-69
2021/01/22 11:40:34;;;;;;;;;;;;;;;;;;4983156;28;20093;-69
2021/01/22 11:43:01;;;;;;;;;;;;;;;;;;4983428;28;19933;-69
2021/01/22 11:45:29;;;;;;;;;;;;;;;;;;4984117;28;20393;-69
2021/01/22 11:47:57;;;;;;;;;;;;;;;;;;4990286;28;19933;-69
2021/01/22 11:50:25;;;;;;;;;;;;;;;;;;4987229;28;20349;-69
2021/01/22 11:52:52;;;;;;;;;;;;;;;;;;4981418;28;19926;-69
2021/01/22 11:55:35;;;;;;;;;;;;;;;;;;4985085;28;20159;-69
2021/01/22 11:58:02;;;;;;;;;;;;;;;;;;4986843;28;20437;-68
2021/01/22 12:00:30;;;;;;;;;;;;;;;;;;4986829;28;19960;-70
2021/01/22 12:02:57;;;;;;;;;;;;;;;;;;4983927;28;19933;-71
2021/01/22 12:05:25;;;;;;;;;;;;;;;;;;4987783;28;20758;-70
2021/01/22 12:07:53;;;;;;;;;;;;;;;;;;5002450;28;19929;-70
2021/01/22 12:10:20;;;;;;;;;;;;;;;;;;4986559;28;19949;-72
2021/01/22 12:12:48;;;;;;;;;;;;;;;;;;4985917;28;19934;-70
2021/01/22 12:15:15;;;;;;;;;;;;;;;;;;4987641;28;19934;-70
2021/01/22 12:17:44;;;;;;;;;;;;;;;;;;4988065;28;19933;-71
2021/01/22 12:20:11;;;;;;;;;;;;;;;;;;4987193;28;19973;-72
2021/01/22 12:22:39;;;;;;;;;;;;;;;;;;4986383;28;19930;-72
2021/01/22 12:25:06;;;;;;;;;;;;;;;;;;4986980;28;20093;-72
2021/01/22 12:27:34;;;;;;;;;;;;;;;;;;4985054;28;20028;-72
2021/01/22 12:30:02;;;;;;;;;;;;;;;;;;4989743;28;20038;-71
2021/01/22 12:32:29;;;;;;;;;;;;;;;;;;4985832;28;19933;-72
2021/01/22 12:34:57;;;;;;;;;;;;;;;;;;4982369;28;20058;-70
2021/01/22 12:37:24;;;;;;;;;;;;;;;;;;4976312;28;20337;-71
2021/01/22 12:39:52;;;;;;;;;;;;;;;;;;4975344;28;19930;-73
2021/01/22 12:42:19;;;;;;;;;;;;;;;;;;4985315;28;19976;-70
2021/01/22 12:44:46;;;;;;;;;;;;;;;;;;4980181;28;19933;-70
2021/01/22 12:47:14;;;;;;;;;;;;;;;;;;4981066;28;19942;-70
2021/01/22 12:49:41;;;;;;;;;;;;;;;;;;4984718;28;19934;-68
2021/01/22 12:52:08;;;;;;;;;;;;;;;;;;4982388;28;20381;-68
2021/01/22 12:54:36;;;;;;;;;;;;;;;;;;4981699;28;19930;-68
2021/01/22 12:57:04;;;;;;;;;;;;;;;;;;4979904;28;19934;-70
2021/01/22 12:59:31;;;;;;;;;;;;;;;;;;4983980;28;19926;-69
2021/01/22 13:01:59;;;;;;;;;;;;;;;;;;4984940;28;20344;-68
2021/01/22 13:04:26;;;;;;;;;;;;;;;;;;4981886;28;20366;-68
2021/01/22 13:06:54;;;;;;;;;;;;;;;;;;4985633;28;20260;-69
2021/01/22 13:09:21;;;;;;;;;;;;;;;;;;4985341;28;19925;-69
2021/01/22 13:11:48;;;;;;;;;;;;;;;;;;4988010;28;20279;-69
2021/01/22 13:14:16;;;;;;;;;;;;;;;;;;4982789;28;20300;-69
2021/01/22 13:16:44;;;;;;;;;;;;;;;;;;4984312;28;19930;-70
2021/01/22 13:19:11;;;;;;;;;;;;;;;;;;4984718;28;19934;-69
2021/01/22 13:21:39;;;;;;;;;;;;;;;;;;4983571;28;19933;-69
2021/01/22 13:24:07;;;;;;;;;;;;;;;;;;4985264;28;19930;-69
2021/01/22 13:26:35;;;;;;;;;;;;;;;;;;4988290;28;19937;-70
2021/01/22 13:29:03;;;;;;;;;;;;;;;;;;4985803;28;19925;-69
2021/01/22 13:31:30;;;;;;;;;;;;;;;;;;4983471;28;20251;-72
2021/01/22 13:33:58;;;;;;;;;;;;;;;;;;4975801;28;20527;-71
2021/01/22 13:36:30;;;;;;;;;;;;;;;;;;4978255;28;20396;-70
2021/01/22 13:38:57;;;;;;;;;;;;;;;;;;4977869;28;20364;-71
2021/01/22 13:41:25;;;;;;;;;;;;;;;;;;4980399;28;20247;-71
2021/01/22 13:43:52;;;;;;;;;;;;;;;;;;4976542;28;19925;-71
2021/01/22 13:46:19;;;;;;;;;;;;;;;;;;4977622;28;19937;-72
2021/01/22 13:48:46;;;;;;;;;;;;;;;;;;4977417;28;19965;-71
2021/01/22 13:51:14;;;;;;;;;;;;;;;;;;4979205;28;19957;-71
2021/01/22 13:53:42;;;;;;;;;;;;;;;;;;4977787;28;19984;-72
2021/01/22 13:56:09;;;;;;;;;;;;;;;;;;4981670;28;19926;-71
2021/01/22 13:58:37;;;;;;;;;;;;;;;;;;4968319;28;19973;-70
2021/01/22 14:01:04;;;;;;;;;;;;;;;;;;4977448;28;19973;-72
2021/01/22 14:03:31;;;;;;;;;;;;;;;;;;4979626;28;20370;-71
2021/01/22 14:05:59;;;;;;;;;;;;;;;;;;4976909;28;19968;-70
2021/01/22 14:08:27;;;;;;;;;;;;;;;;;;4976688;28;20004;-69
2021/01/22 14:10:54;;;;;;;;;;;;;;;;;;4968813;28;20024;-69
2021/01/22 14:13:21;;;;;;;;;;;;;;;;;;4975191;28;19936;-69
2021/01/22 14:15:48;;;;;;;;;;;;;;;;;;4982471;28;19991;-68
2021/01/22 14:18:16;;;;;;;;;;;;;;;;;;4982216;28;20708;-69
2021/01/22 14:20:44;;;;;;;;;;;;;;;;;;4979506;28;19937;-68
2021/01/22 14:23:11;;;;;;;;;;;;;;;;;;4981877;28;19929;-69
2021/01/22 14:25:40;;;;;;;;;;;;;;;;;;4982549;28;20019;-68
2021/01/22 14:28:08;;;;;;;;;;;;;;;;;;4981942;28;20396;-68
2021/01/22 14:30:35;;;;;;;;;;;;;;;;;;4983475;28;20262;-68
2021/01/22 14:33:03;;;;;;;;;;;;;;;;;;4975163;28;20335;-68
2021/01/22 14:35:30;;;;;;;;;;;;;;;;;;4982769;28;20020;-68
2021/01/22 14:37:57;;;;;;;;;;;;;;;;;;4978349;28;19941;-69
2021/01/22 14:40:25;;;;;;;;;;;;;;;;;;4981389;28;20592;-68
2021/01/22 14:42:52;;;;;;;;;;;;;;;;;;4983953;28;19944;-68
2021/01/22 14:45:19;;;;;;;;;;;;;;;;;;4982045;28;19945;-68
2021/01/22 14:47:47;;;;;;;;;;;;;;;;;;4983425;28;19937;-68
2021/01/22 14:50:14;;;;;;;;;;;;;;;;;;4978962;28;19956;-68
2021/01/22 14:52:41;;;;;;;;;;;;;;;;;;4982631;28;20042;-68
2021/01/22 14:55:09;;;;;;;;;;;;;;;;;;4979854;28;20468;-68
2021/01/22 14:57:36;;;;;;;;;;;;;;;;;;4975523;28;20025;-68
2021/01/22 15:00:03;;;;;;;;;;;;;;;;;;4974150;28;19941;-69
2021/01/22 15:02:31;;;;;;;;;;;;;;;;;;4982152;28;20020;-68
2021/01/22 15:04:58;;;;;;;;;;;;;;;;;;4981578;28;20024;-68
2021/01/22 15:07:26;;;;;;;;;;;;;;;;;;4976115;28;20396;-68
2021/01/22 15:09:53;;;;;;;;;;;;;;;;;;4980666;28;20254;-68
2021/01/22 15:12:20;;;;;;;;;;;;;;;;;;4983573;28;19926;-67
2021/01/22 15:14:48;;;;;;;;;;;;;;;;;;4978537;28;19930;-68
2021/01/22 15:17:16;;;;;;;;;;;;;;;;;;4982428;28;19933;-68
2021/01/22 15:19:43;;;;;;;;;;;;;;;;;;4977561;28;19945;-68
2021/01/22 15:22:11;;;;;;;;;;;;;;;;;;4974504;28;19933;-68
2021/01/22 15:24:38;;;;;;;;;;;;;;;;;;4981880;28;19977;-67
2021/01/22 15:27:06;;;;;;;;;;;;;;;;;;4974987;28;19926;-69
2021/01/22 15:29:33;;;;;;;;;;;;;;;;;;4981148;28;19926;-68
2021/01/22 15:32:00;;;;;;;;;;;;;;;;;;4981299;28;20595;-68
2021/01/22 15:34:28;;;;;;;;;;;;;;;;;;4979286;28;19937;-68
2021/01/22 15:36:56;;;;;;;;;;;;;;;;;;4978165;28;20096;-68
2021/01/22 15:39:23;;;;;;;;;;;;;;;;;;4986267;28;19929;-67
2021/01/22 15:41:50;;;;;;;;;;;;;;;;;;4982909;28;20020;-68
2021/01/22 15:44:18;;;;;;;;;;;;;;;;;;4984208;28;19965;-67
2021/01/22 15:46:45;;;;;;;;;;;;;;;;;;4984237;28;19971;-68
2021/01/22 15:49:13;;;;;;;;;;;;;;;;;;4979870;28;19933;-68
2021/01/22 15:51:40;;;;;;;;;;;;;;;;;;4984903;28;19973;-68
2021/01/22 15:54:07;;;;;;;;;;;;;;;;;;4988954;28;19940;-68
2021/01/22 15:56:34;;;;;;;;;;;;;;;;;;4975918;28;19929;-68
2021/01/22 15:59:02;;;;;;;;;;;;;;;;;;4978495;28;20051;-68
2021/01/22 16:01:29;;;;;;;;;;;;;;;;;;4978027;28;19930;-68
2021/01/22 16:03:57;;;;;;;;;;;;;;;;;;4964240;28;19930;-68
2021/01/22 16:06:24;;;;;;;;;;;;;;;;;;4978435;28;20599;-67
2021/01/22 16:08:52;;;;;;;;;;;;;;;;;;4977429;28;20312;-68
2021/01/22 16:11:20;;;;;;;;;;;;;;;;;;4984287;28;19926;-68
2021/01/22 16:13:47;;;;;;;;;;;;;;;;;;4976435;28;19930;-68
2021/01/22 16:16:15;;;;;;;;;;;;;;;;;;4980031;28;20120;-68
2021/01/22 16:18:42;;;;;;;;;;;;;;;;;;4983460;28;19956;-67
2021/01/22 16:21:10;;;;;;;;;;;;;;;;;;4984440;28;19976;-68
2021/01/22 16:23:38;;;;;;;;;;;;;;;;;;4977674;28;19960;-68
2021/01/22 16:26:05;;;;;;;;;;;;;;;;;;4982124;28;20342;-68
2021/01/22 16:28:33;;;;;;;;;;;;;;;;;;4966472;28;19941;-68
2021/01/22 16:31:00;;;;;;;;;;;;;;;;;;4975538;28;19930;-68
2021/01/22 16:33:27;;;;;;;;;;;;;;;;;;4985356;28;20185;-68
2021/01/22 16:35:55;;;;;;;;;;;;;;;;;;4976415;28;19963;-67
2021/01/22 16:38:22;;;;;;;;;;;;;;;;;;4973091;28;19930;-68
2021/01/22 16:40:49;;;;;;;;;;;;;;;;;;4980866;28;21344;-68
2021/01/22 16:43:17;;;;;;;;;;;;;;;;;;4980238;28;20305;-68
2021/01/22 16:45:44;;;;;;;;;;;;;;;;;;4984277;28;19976;-68
2021/01/22 16:48:13;;;;;;;;;;;;;;;;;;4981555;28;19965;-67